createdAt,value
2022-12-17T00:01:46.057Z,38.60
2022-12-17T00:04:31.646Z,38.30
2022-12-17T00:07:17.289Z,44.17
2022-12-17T00:10:02.823Z,38.90
2022-12-17T00:12:48.498Z,40.72
2022-12-17T00:15:34.096Z,42.15
2022-12-17T00:18:23.692Z,42.25
2022-12-17T00:21:13.749Z,42.97
2022-12-17T00:23:59.434Z,36.65
2022-12-17T00:26:45.014Z,33.85
2022-12-17T00:29:30.455Z,41.00
2022-12-17T00:32:16.063Z,37.45
2022-12-17T00:35:01.538Z,40.80
2022-12-17T00:37:47.127Z,39.15
2022-12-17T00:40:32.759Z,37.17
2022-12-17T00:43:24.288Z,35.20
2022-12-17T00:46:10.265Z,40.25
2022-12-17T00:48:56.019Z,38.05
2022-12-17T00:51:42.705Z,44.00
2022-12-17T00:54:27.941Z,41.92
2022-12-17T00:57:13.523Z,42.67
2022-12-17T00:59:58.963Z,48.10
2022-12-17T01:02:45.209Z,34.97
2022-12-17T01:05:31.350Z,40.47
2022-12-17T01:08:25.130Z,34.72
2022-12-17T01:11:10.501Z,38.80
2022-12-17T01:13:56.586Z,39.78
2022-12-17T01:16:42.247Z,37.40
2022-12-17T01:19:27.985Z,37.97
2022-12-17T01:22:13.682Z,46.33
2022-12-17T01:24:59.231Z,34.22
2022-12-17T01:27:44.942Z,52.10
2022-12-17T01:30:30.336Z,42.03
2022-12-17T01:33:23.044Z,46.08
2022-12-17T01:36:08.758Z,33.35
2022-12-17T01:38:54.332Z,45.67
2022-12-17T01:41:39.876Z,46.10
2022-12-17T01:45:02.422Z,40.50
2022-12-17T01:47:51.873Z,45.83
2022-12-17T01:50:37.852Z,49.50
2022-12-17T01:53:24.963Z,38.75
2022-12-17T01:56:10.656Z,36.00
2022-12-17T01:58:56.029Z,44.60
2022-12-17T02:01:41.357Z,39.85
2022-12-17T02:04:40.925Z,43.15
2022-12-17T02:07:44.785Z,41.42
2022-12-17T02:10:39.135Z,39.17
2022-12-17T02:13:40.221Z,43.38
2022-12-17T02:16:35.064Z,40.40
2022-12-17T02:19:34.882Z,47.33
2022-12-17T02:22:26.712Z,44.13
2022-12-17T02:25:19.013Z,40.88
2022-12-17T02:28:04.371Z,36.92
2022-12-17T02:30:50.738Z,40.15
2022-12-17T02:33:36.439Z,45.33
2022-12-17T02:36:24.666Z,37.83
2022-12-17T02:42:08.371Z,40.78
2022-12-17T02:47:41.694Z,33.65
2022-12-17T02:53:13.119Z,31.83
2022-12-17T02:55:58.679Z,42.13
2022-12-17T02:58:44.159Z,37.63
2022-12-17T03:01:29.885Z,45.22
2022-12-17T03:04:15.392Z,45.30
2022-12-17T03:07:01.050Z,42.15
2022-12-17T03:09:46.604Z,45.05
2022-12-17T03:12:32.110Z,41.92
2022-12-17T03:15:17.877Z,33.95
2022-12-17T03:18:03.428Z,40.42
2022-12-17T03:20:48.689Z,41.72
2022-12-17T03:23:34.847Z,43.40
2022-12-17T03:26:21.677Z,33.35
2022-12-17T03:29:07.942Z,37.22
2022-12-17T03:31:53.912Z,31.98
2022-12-17T03:34:39.475Z,32.47
2022-12-17T03:37:25.196Z,36.90
2022-12-17T03:40:10.760Z,41.67
2022-12-17T03:42:56.405Z,39.55
2022-12-17T03:45:42.143Z,39.10
2022-12-17T03:48:30.222Z,36.80
2022-12-17T03:54:01.427Z,38.95
2022-12-17T03:56:47.376Z,38.65
2022-12-17T03:59:33.080Z,33.20
2022-12-17T04:02:18.815Z,33.13
2022-12-17T04:05:04.356Z,34.63
2022-12-17T04:07:49.767Z,37.85
2022-12-17T04:10:35.256Z,35.53
2022-12-17T04:13:20.852Z,31.50
2022-12-17T04:16:06.385Z,32.92
2022-12-17T04:18:52.043Z,38.03
2022-12-17T04:21:37.556Z,39.92
2022-12-17T04:24:23.081Z,37.00
2022-12-17T04:27:08.759Z,36.97
2022-12-17T04:29:55.307Z,37.45
2022-12-17T04:32:40.834Z,42.78
2022-12-17T04:35:26.362Z,36.47
2022-12-17T04:38:11.904Z,37.00
2022-12-17T04:40:57.590Z,28.12
2022-12-17T04:43:43.117Z,43.28
2022-12-17T04:46:28.890Z,36.60
2022-12-17T04:49:14.538Z,35.22
2022-12-17T04:52:00.082Z,37.58
2022-12-17T04:54:45.778Z,39.58
2022-12-17T04:57:31.240Z,39.47
2022-12-17T05:00:16.870Z,37.55
2022-12-17T05:03:02.653Z,32.95
2022-12-17T05:05:47.983Z,29.05
2022-12-17T05:08:36.900Z,33.08
2022-12-17T05:11:26.824Z,41.88
2022-12-17T05:14:12.370Z,42.80
2022-12-17T05:16:57.950Z,37.80
2022-12-17T05:19:43.711Z,47.15
2022-12-17T05:22:29.177Z,45.58
2022-12-17T05:25:14.715Z,34.67
2022-12-17T05:28:00.151Z,38.05
2022-12-17T05:30:45.790Z,47.03
2022-12-17T05:33:31.394Z,54.13
2022-12-17T05:36:18.925Z,47.42
2022-12-17T05:39:04.549Z,43.25
2022-12-17T05:41:50.155Z,45.92
2022-12-17T05:44:35.691Z,44.10
2022-12-17T05:47:21.275Z,42.90
2022-12-17T05:50:06.791Z,47.53
2022-12-17T05:52:52.507Z,35.92
2022-12-17T05:55:38.126Z,47.70
2022-12-17T05:58:25.255Z,46.63
2022-12-17T06:01:18.007Z,37.78
2022-12-17T06:04:03.812Z,36.03
2022-12-17T06:06:49.528Z,30.08
2022-12-17T06:09:34.836Z,32.30
2022-12-17T06:12:20.928Z,39.50
2022-12-17T06:15:06.185Z,43.22
2022-12-17T06:17:51.838Z,40.28
2022-12-17T06:20:37.902Z,40.60
2022-12-17T06:23:25.369Z,35.05
2022-12-17T06:26:14.941Z,38.85
2022-12-17T06:29:01.321Z,34.35
2022-12-17T06:31:46.889Z,40.65
2022-12-17T06:34:32.531Z,36.92
2022-12-17T06:37:17.863Z,37.35
2022-12-17T06:40:03.318Z,37.17
2022-12-17T06:42:48.927Z,36.65
2022-12-17T06:45:34.445Z,42.53
2022-12-17T06:48:23.512Z,42.28
2022-12-17T06:51:09.187Z,37.72
2022-12-17T06:53:54.743Z,33.42
2022-12-17T06:56:40.430Z,34.45
2022-12-17T06:59:26.078Z,38.35
2022-12-17T07:02:11.697Z,43.87
2022-12-17T07:04:57.299Z,40.92
2022-12-17T07:07:42.818Z,41.03
2022-12-17T07:10:28.451Z,35.72
2022-12-17T07:13:13.983Z,37.50
2022-12-17T07:15:59.578Z,40.65
2022-12-17T07:18:45.143Z,37.35
2022-12-17T07:21:30.703Z,35.85
2022-12-17T07:24:16.279Z,38.45
2022-12-17T07:27:01.795Z,37.83
2022-12-17T07:29:47.352Z,37.38
2022-12-17T07:32:32.932Z,34.63
2022-12-17T07:35:18.441Z,38.88
2022-12-17T07:38:04.013Z,38.40
2022-12-17T07:40:49.607Z,39.50
2022-12-17T07:43:35.405Z,36.90
2022-12-17T07:46:21.216Z,40.03
2022-12-17T07:49:06.735Z,40.15
2022-12-17T07:51:52.419Z,42.28
2022-12-17T07:54:38.012Z,35.10
2022-12-17T07:57:23.425Z,33.13
2022-12-17T08:00:09.205Z,39.55
2022-12-17T08:03:05.562Z,36.42
2022-12-17T08:05:51.241Z,34.25
2022-12-17T08:08:36.673Z,31.58
2022-12-17T08:11:22.296Z,32.53
2022-12-17T08:14:07.860Z,33.63
2022-12-17T08:16:53.420Z,38.45
2022-12-17T08:19:39.524Z,36.25
2022-12-17T08:22:25.075Z,33.67
2022-12-17T08:25:10.772Z,35.85
2022-12-17T08:27:56.356Z,37.30
2022-12-17T08:30:42.746Z,33.58
2022-12-17T08:33:41.997Z,31.37
2022-12-17T08:36:28.039Z,37.72
2022-12-17T08:39:24.363Z,37.28
2022-12-17T08:42:09.930Z,34.92
2022-12-17T08:44:55.580Z,34.22
2022-12-17T08:47:42.753Z,35.13
2022-12-17T08:50:28.407Z,37.95
2022-12-17T08:53:21.448Z,38.40
2022-12-17T08:56:07.045Z,38.95
2022-12-17T08:58:58.679Z,35.67
2022-12-17T09:01:44.612Z,41.47
2022-12-17T09:04:30.065Z,33.15
2022-12-17T09:07:15.723Z,35.97
2022-12-17T09:10:01.040Z,37.38
2022-12-17T09:12:46.725Z,37.55
2022-12-17T09:15:32.266Z,38.33
2022-12-17T09:18:17.835Z,35.95
2022-12-17T09:21:03.326Z,33.08
2022-12-17T09:23:48.591Z,34.53
2022-12-17T09:26:34.186Z,35.95
2022-12-17T09:29:19.833Z,39.25
2022-12-17T09:32:05.227Z,43.92
2022-12-17T09:34:50.680Z,36.22
2022-12-17T09:37:36.314Z,35.67
2022-12-17T09:40:21.883Z,38.47
2022-12-17T09:43:22.122Z,38.00
2022-12-17T09:46:47.493Z,37.10
2022-12-17T09:49:45.125Z,35.03
2022-12-17T09:52:38.118Z,34.13
2022-12-17T09:55:39.891Z,33.47
2022-12-17T09:58:25.754Z,35.83
2022-12-17T10:01:11.525Z,44.47
2022-12-17T10:04:04.828Z,28.98
2022-12-17T10:06:50.000Z,38.13
2022-12-17T10:09:37.135Z,43.20
2022-12-17T10:12:35.498Z,37.67
2022-12-17T10:15:21.552Z,35.83
2022-12-17T10:18:07.118Z,31.15
2022-12-17T10:20:57.372Z,35.10
2022-12-17T10:23:47.411Z,38.70
2022-12-17T10:26:47.164Z,35.58
2022-12-17T10:29:47.069Z,38.30
2022-12-17T10:32:33.532Z,35.35
2022-12-17T10:35:20.211Z,42.00
2022-12-17T10:38:05.425Z,41.90
2022-12-17T10:40:52.243Z,35.92
2022-12-17T10:43:58.476Z,30.52
2022-12-17T10:46:47.852Z,41.60
2022-12-17T10:49:38.869Z,34.55
2022-12-17T10:52:34.058Z,42.67
2022-12-17T10:55:22.331Z,36.35
2022-12-17T10:58:09.493Z,44.60
2022-12-17T11:01:03.813Z,39.50
2022-12-17T11:03:55.015Z,35.28
2022-12-17T11:06:49.300Z,40.03
2022-12-17T11:09:55.846Z,36.50
2022-12-17T11:12:46.458Z,31.98
2022-12-17T11:15:51.757Z,40.30
2022-12-17T11:18:42.055Z,43.08
2022-12-17T11:21:40.326Z,37.67
2022-12-17T11:24:32.471Z,35.13
2022-12-17T11:27:18.274Z,34.22
2022-12-17T11:30:04.108Z,37.85
2022-12-17T11:33:04.161Z,41.88
2022-12-17T11:35:58.624Z,37.60
2022-12-17T11:38:51.632Z,38.22
2022-12-17T11:41:42.480Z,34.60
2022-12-17T11:45:18.495Z,42.38
2022-12-17T11:48:12.383Z,38.60
2022-12-17T11:51:15.593Z,39.60
2022-12-17T11:54:20.109Z,37.47
2022-12-17T11:57:20.170Z,40.22
2022-12-17T12:00:20.658Z,33.78
2022-12-17T12:03:54.136Z,33.22
2022-12-17T12:06:53.519Z,37.58
2022-12-17T12:10:07.011Z,41.20
2022-12-17T12:13:01.737Z,40.97
2022-12-17T12:16:13.544Z,43.72
2022-12-17T12:19:14.055Z,41.22
2022-12-17T12:22:07.788Z,38.13
2022-12-17T12:25:00.931Z,34.70
2022-12-17T12:28:39.117Z,37.90
2022-12-17T12:31:36.272Z,41.75
2022-12-17T12:34:31.728Z,37.72
2022-12-17T12:37:19.667Z,34.08
2022-12-17T12:43:07.438Z,33.03
2022-12-17T12:46:01.847Z,27.00
2022-12-17T12:49:03.973Z,34.42
2022-12-17T12:51:53.328Z,28.30
2022-12-17T12:54:46.175Z,32.33
2022-12-17T12:57:47.788Z,34.00
2022-12-17T13:01:10.303Z,32.88
2022-12-17T13:04:04.495Z,37.92
2022-12-17T13:06:54.363Z,34.80
2022-12-17T13:09:30.893Z,32.05
2022-12-17T13:12:04.955Z,38.08
2022-12-17T13:14:51.339Z,33.15
2022-12-17T13:17:18.133Z,31.45
2022-12-17T13:22:34.776Z,38.80
2022-12-17T13:25:17.734Z,39.20
2022-12-17T13:27:44.699Z,33.20
2022-12-17T13:30:17.562Z,38.33
2022-12-17T13:33:21.301Z,39.15
2022-12-17T13:36:09.375Z,40.72
2022-12-17T13:41:28.340Z,35.35
2022-12-17T13:43:59.415Z,39.70
2022-12-17T13:46:36.513Z,34.55
2022-12-17T13:49:05.196Z,37.95
2022-12-17T13:51:34.987Z,33.30
2022-12-17T13:54:04.087Z,30.17
2022-12-17T13:56:31.917Z,30.77
2022-12-17T13:59:08.000Z,29.48
2022-12-17T14:01:45.356Z,32.17
2022-12-17T14:04:20.929Z,34.53
2022-12-17T14:06:47.893Z,32.28
2022-12-17T14:09:17.554Z,30.73
2022-12-17T14:12:03.232Z,33.63
2022-12-17T14:14:35.056Z,37.63
2022-12-17T14:17:02.119Z,34.38
2022-12-17T14:19:29.574Z,34.45
2022-12-17T14:21:56.802Z,32.25
2022-12-17T14:24:27.312Z,40.85
2022-12-17T14:26:56.557Z,34.40
2022-12-17T14:29:31.285Z,34.53
2022-12-17T14:32:02.197Z,36.67
2022-12-17T14:34:30.200Z,37.22
2022-12-17T14:36:58.997Z,30.88
2022-12-17T14:39:29.005Z,30.10
2022-12-17T14:42:16.657Z,35.63
2022-12-17T14:45:06.452Z,30.08
2022-12-17T14:47:35.136Z,34.38
2022-12-17T14:50:07.260Z,33.97
2022-12-17T14:52:44.122Z,35.17
2022-12-17T14:55:31.586Z,35.22
2022-12-17T14:58:13.765Z,37.83
2022-12-17T15:00:44.932Z,37.65
2022-12-17T15:03:19.747Z,28.83
2022-12-17T15:05:57.155Z,37.53
2022-12-17T15:08:24.024Z,34.83
2022-12-17T15:10:50.925Z,24.95
2022-12-17T15:15:44.468Z,38.28
2022-12-17T15:20:38.143Z,32.10
2022-12-17T15:23:05.009Z,35.03
2022-12-17T15:27:58.495Z,46.03
2022-12-17T15:32:52.106Z,33.65
2022-12-17T15:37:45.730Z,28.80
2022-12-17T15:43:01.655Z,27.92
2022-12-17T15:45:32.833Z,30.08
2022-12-17T15:50:26.659Z,31.37
2022-12-17T15:52:53.520Z,33.05
2022-12-17T15:57:47.075Z,36.65
2022-12-17T16:02:41.011Z,33.92
2022-12-17T16:05:08.542Z,23.55
2022-12-17T16:07:35.595Z,30.10
2022-12-17T16:10:05.335Z,33.47
2022-12-17T16:12:32.976Z,34.67
2022-12-17T16:14:59.812Z,33.83
2022-12-17T16:19:53.351Z,41.30
2022-12-17T16:24:47.169Z,37.40
2022-12-17T16:27:14.719Z,34.88
2022-12-17T16:29:41.614Z,35.13
2022-12-17T16:34:35.238Z,35.55
2022-12-17T16:37:02.085Z,42.58
2022-12-17T16:39:29.137Z,26.65
2022-12-17T16:41:56.017Z,31.87
2022-12-17T16:46:49.712Z,35.47
2022-12-17T16:49:23.664Z,36.78
2022-12-17T16:51:52.095Z,33.92
2022-12-17T16:54:24.401Z,23.73
2022-12-17T16:56:51.447Z,35.15
2022-12-17T16:59:18.943Z,37.92
2022-12-17T17:01:48.369Z,32.70
2022-12-17T17:04:16.717Z,37.78
2022-12-17T17:06:49.521Z,31.12
2022-12-17T17:09:16.869Z,35.75
2022-12-17T17:11:48.142Z,34.00
2022-12-17T17:14:18.019Z,32.90
2022-12-17T17:16:44.884Z,32.78
2022-12-17T17:19:11.834Z,26.10
2022-12-17T17:21:40.683Z,34.45
2022-12-17T17:24:16.748Z,41.60
2022-12-17T17:26:45.467Z,35.35
2022-12-17T17:34:25.993Z,29.80
2022-12-17T17:39:19.518Z,32.55
2022-12-17T17:41:46.433Z,27.85
2022-12-17T17:46:40.909Z,35.87
2022-12-17T17:49:08.849Z,33.30
2022-12-17T17:54:25.108Z,34.40
2022-12-17T17:56:51.924Z,32.25
2022-12-17T18:01:49.655Z,24.45
2022-12-17T18:04:21.628Z,33.40
2022-12-17T18:07:23.068Z,25.73
2022-12-17T18:09:35.551Z,23.03
2022-12-17T18:15:12.435Z,29.63
2022-12-17T18:17:36.049Z,30.02
2022-12-17T18:22:29.653Z,30.05
2022-12-17T18:27:23.099Z,22.95
2022-12-17T18:32:16.679Z,25.85
2022-12-17T18:34:43.708Z,32.78
2022-12-17T18:37:10.646Z,28.75
2022-12-17T18:39:37.497Z,28.23
2022-12-17T18:42:22.829Z,27.58
2022-12-17T18:44:49.685Z,26.92
2022-12-17T18:47:16.768Z,24.52
2022-12-17T18:49:43.646Z,28.77
2022-12-17T18:52:16.236Z,27.90
2022-12-17T18:54:43.893Z,21.35
2022-12-17T18:57:10.756Z,25.17
2022-12-17T18:59:38.632Z,28.70
2022-12-17T19:02:05.625Z,22.05
2022-12-17T19:04:33.202Z,27.95
2022-12-17T19:07:00.154Z,25.52
2022-12-17T19:11:58.378Z,24.35
2022-12-17T19:14:25.924Z,22.37
2022-12-17T19:16:54.784Z,19.92
2022-12-17T19:19:22.691Z,34.65
2022-12-17T19:21:49.980Z,18.55
2022-12-17T19:24:18.583Z,25.05
2022-12-17T19:26:45.936Z,23.17
2022-12-17T19:29:14.108Z,21.98
2022-12-17T19:31:41.063Z,24.92
2022-12-17T19:34:11.370Z,30.15
2022-12-17T19:36:39.013Z,26.33
2022-12-17T19:39:08.001Z,31.45
2022-12-17T19:41:35.210Z,25.42
2022-12-17T19:44:07.171Z,21.30
2022-12-17T19:46:35.229Z,20.55
2022-12-17T19:49:02.547Z,25.15
2022-12-17T19:51:30.769Z,23.67
2022-12-17T19:54:01.793Z,27.45
2022-12-17T19:56:33.609Z,26.50
2022-12-17T19:59:03.345Z,25.27
2022-12-17T20:01:36.797Z,21.83
2022-12-17T20:04:04.607Z,26.17
2022-12-17T20:06:33.391Z,20.33
2022-12-17T20:09:00.981Z,24.73
2022-12-17T20:11:34.204Z,25.52
2022-12-17T20:14:17.942Z,30.88
2022-12-17T20:16:53.322Z,20.52
2022-12-17T20:19:22.548Z,24.60
2022-12-17T20:21:49.600Z,27.55
2022-12-17T20:24:17.327Z,27.77
2022-12-17T20:26:45.308Z,27.17
2022-12-17T20:29:12.428Z,29.75
2022-12-17T20:31:39.921Z,27.10
2022-12-17T20:34:08.773Z,22.92
2022-12-17T20:36:36.211Z,26.65
2022-12-17T20:39:03.620Z,30.42
2022-12-17T20:41:31.632Z,21.15
2022-12-17T20:43:59.118Z,27.52
2022-12-17T20:46:26.096Z,30.90
2022-12-17T20:48:53.629Z,26.40
2022-12-17T20:51:23.593Z,28.67
2022-12-17T20:53:52.162Z,25.10
2022-12-17T20:56:21.759Z,24.45
2022-12-17T20:58:53.082Z,28.95
2022-12-17T21:01:22.016Z,31.75
2022-12-17T21:03:50.651Z,28.62
2022-12-17T21:06:22.152Z,24.30
2022-12-17T21:08:51.655Z,17.42
2022-12-17T21:11:20.499Z,23.48
2022-12-17T21:13:47.416Z,22.58
2022-12-17T21:16:19.120Z,27.83
2022-12-17T21:18:46.051Z,25.88
2022-12-17T21:23:41.536Z,28.38
2022-12-17T21:26:12.197Z,27.40
2022-12-17T21:28:41.619Z,29.23
2022-12-17T21:31:24.709Z,23.48
2022-12-17T21:33:54.219Z,26.87
2022-12-17T21:36:22.434Z,23.92
2022-12-17T21:38:49.717Z,30.25
2022-12-17T21:41:21.920Z,26.70
2022-12-17T21:43:53.242Z,18.42
2022-12-17T21:46:20.262Z,23.95
2022-12-17T21:48:47.581Z,23.77
2022-12-17T21:51:15.285Z,30.88
2022-12-17T21:53:43.781Z,34.45
2022-12-17T21:56:16.647Z,25.65
2022-12-17T21:58:44.963Z,24.27
2022-12-17T22:01:23.830Z,23.30
2022-12-17T22:03:54.128Z,29.37
2022-12-17T22:06:23.945Z,33.13
2022-12-17T22:08:52.768Z,30.62
2022-12-17T22:11:25.909Z,32.47
2022-12-17T22:14:18.979Z,25.12
2022-12-17T22:16:49.719Z,29.33
2022-12-17T22:19:22.517Z,29.20
2022-12-17T22:21:51.067Z,31.17
2022-12-17T22:24:23.069Z,28.55
2022-12-17T22:26:49.894Z,31.58
2022-12-17T22:32:22.410Z,24.40
2022-12-17T22:35:20.852Z,25.95
2022-12-17T22:40:48.119Z,26.25
2022-12-17T22:44:24.445Z,19.52
2022-12-17T22:44:41.789Z,24.60
2022-12-17T22:46:17.186Z,27.75
2022-12-17T22:48:44.641Z,25.95
2022-12-17T22:51:12.846Z,25.60
2022-12-17T22:53:43.262Z,27.02
2022-12-17T22:56:20.053Z,26.75
2022-12-17T22:58:57.831Z,22.52
2022-12-17T23:01:24.847Z,26.67
2022-12-17T23:03:55.929Z,26.90
2022-12-17T23:06:23.312Z,21.65
2022-12-17T23:08:50.469Z,27.33
2022-12-17T23:11:24.072Z,22.67
2022-12-17T23:13:51.860Z,23.98
2022-12-17T23:16:19.848Z,24.35
2022-12-17T23:18:48.227Z,20.70
2022-12-17T23:21:20.661Z,25.00
2022-12-17T23:23:47.527Z,27.60
2022-12-17T23:28:45.698Z,25.20
2022-12-17T23:31:17.819Z,21.95
2022-12-17T23:33:45.394Z,27.42
2022-12-17T23:36:14.983Z,28.27
2022-12-17T23:38:42.344Z,30.62
2022-12-17T23:41:11.915Z,25.37
2022-12-17T23:43:40.007Z,26.55
2022-12-17T23:46:08.233Z,23.38
2022-12-17T23:48:42.016Z,20.88
2022-12-17T23:51:12.163Z,25.88
2022-12-17T23:53:39.560Z,23.02
2022-12-17T23:56:12.442Z,20.10
2022-12-17T23:58:41.604Z,18.05
